Time;durP1;ratioP1;P1;durP2;ratioP2;P2;SDS_P1;SDS_P2;PMS_P1;PMS_P2;Temp;Humidity;BMP_temperature;BMP_pressure;BME280_temperature;BME280_humidity;BME280_pressure;Samples;Min_cycle;Max_cycle;Signal;HPM_P1;HPM_P2
2023/07/25 00:01:48;;;;;;;29.73;4.55;;;;;;;;;;5009046;28;20571;-58
2023/07/25 00:04:15;;;;;;;35.60;5.30;;;;;;;;;;5010701;28;20063;-58
2023/07/25 00:06:42;;;;;;;30.83;6.03;;;;;;;;;;5009123;28;20083;-57
2023/07/25 00:09:09;;;;;;;29.42;6.38;;;;;;;;;;5011248;28;20140;-58
2023/07/25 00:11:36;;;;;;;29.38;7.03;;;;;;;;;;5011444;28;20562;-58
2023/07/25 00:14:03;;;;;;;43.67;7.90;;;;;;;;;;5011456;28;20029;-58
2023/07/25 00:16:30;;;;;;;39.50;8.38;;;;;;;;;;5009300;28;20030;-58
2023/07/25 00:18:57;;;;;;;32.25;8.43;;;;;;;;;;5010546;28;20079;-58
2023/07/25 00:21:24;;;;;;;31.73;8.88;;;;;;;;;;5011004;28;20090;-58
2023/07/25 00:23:51;;;;;;;42.15;8.80;;;;;;;;;;5010809;28;20125;-58
2023/07/25 00:26:18;;;;;;;32.83;8.68;;;;;;;;;;5010314;28;20053;-59
2023/07/25 00:28:46;;;;;;;38.35;9.45;;;;;;;;;;5011418;28;20033;-59
2023/07/25 00:31:13;;;;;;;42.72;10.10;;;;;;;;;;5025620;28;20103;-58
2023/07/25 00:33:40;;;;;;;33.47;9.90;;;;;;;;;;5010706;28;20057;-58
2023/07/25 00:36:07;;;;;;;39.22;10.38;;;;;;;;;;5011272;28;20026;-58
2023/07/25 00:38:34;;;;;;;39.97;10.57;;;;;;;;;;5026041;28;20496;-58
2023/07/25 00:41:01;;;;;;;42.72;10.00;;;;;;;;;;5011482;28;20092;-58
2023/07/25 00:43:28;;;;;;;45.97;10.93;;;;;;;;;;5011220;28;20065;-58
2023/07/25 00:45:55;;;;;;;47.20;11.07;;;;;;;;;;5011303;28;20030;-58
2023/07/25 00:48:22;;;;;;;43.90;10.80;;;;;;;;;;5010807;28;20026;-58
2023/07/25 00:50:51;;;;;;;49.65;10.80;;;;;;;;;;5010013;28;20361;-58
2023/07/25 00:53:18;;;;;;;57.35;10.70;;;;;;;;;;5011213;28;20461;-58
2023/07/25 00:55:45;;;;;;;37.53;9.90;;;;;;;;;;5011251;28;20112;-56
2023/07/25 00:58:12;;;;;;;39.25;9.48;;;;;;;;;;5010889;28;20030;-56
2023/07/25 01:00:39;;;;;;;31.48;8.65;;;;;;;;;;5011004;28;20496;-54
2023/07/25 01:03:07;;;;;;;35.08;9.48;;;;;;;;;;5025875;28;20041;-56
2023/07/25 01:05:36;;;;;;;34.47;8.93;;;;;;;;;;5010838;28;20072;-56
2023/07/25 01:08:03;;;;;;;37.75;9.57;;;;;;;;;;5011005;28;20072;-56
2023/07/25 01:10:32;;;;;;;40.72;8.35;;;;;;;;;;5011233;28;20037;-56
2023/07/25 01:12:59;;;;;;;34.63;8.00;;;;;;;;;;5011102;28;20042;-56
2023/07/25 01:15:27;;;;;;;42.03;8.98;;;;;;;;;;5011148;28;20045;-56
2023/07/25 01:17:54;;;;;;;28.15;6.90;;;;;;;;;;5010978;28;20037;-56
2023/07/25 01:20:22;;;;;;;33.45;7.63;;;;;;;;;;5011007;28;20049;-56
2023/07/25 01:22:50;;;;;;;40.78;8.27;;;;;;;;;;5010631;28;20030;-59
2023/07/25 01:25:17;;;;;;;33.38;7.88;;;;;;;;;;5013571;28;20128;-56
2023/07/25 01:27:44;;;;;;;36.20;7.55;;;;;;;;;;5014522;28;20164;-55
2023/07/25 01:30:11;;;;;;;29.38;7.28;;;;;;;;;;5014916;28;20041;-56
2023/07/25 01:32:38;;;;;;;26.90;6.80;;;;;;;;;;5013881;28;20038;-56
2023/07/25 01:35:06;;;;;;;29.67;7.10;;;;;;;;;;5014513;28;20101;-56
2023/07/25 01:37:33;;;;;;;25.63;6.72;;;;;;;;;;5014346;28;20041;-56
2023/07/25 01:40:00;;;;;;;28.20;6.20;;;;;;;;;;5014491;28;20076;-56
2023/07/25 01:42:27;;;;;;;23.60;7.10;;;;;;;;;;5014414;28;20022;-56
2023/07/25 01:44:54;;;;;;;28.90;6.95;;;;;;;;;;5014419;28;20034;-55
2023/07/25 01:47:25;;;;;;;23.58;5.90;;;;;;;;;;5014099;28;20037;-56
2023/07/25 01:49:53;;;;;;;22.67;5.63;;;;;;;;;;5014303;28;20408;-56
2023/07/25 01:52:20;;;;;;;21.52;5.75;;;;;;;;;;5014305;28;20030;-56
2023/07/25 01:54:49;;;;;;;19.33;5.90;;;;;;;;;;5011274;28;20042;-56
2023/07/25 01:57:17;;;;;;;25.17;5.57;;;;;;;;;;5012554;28;20026;-57
2023/07/25 01:59:44;;;;;;;26.60;6.18;;;;;;;;;;5013504;28;20482;-58
2023/07/25 02:02:11;;;;;;;24.38;5.97;;;;;;;;;;5012873;28;20132;-57
2023/07/25 02:04:38;;;;;;;21.85;5.45;;;;;;;;;;5012824;28;20033;-56
2023/07/25 02:07:05;;;;;;;21.40;5.65;;;;;;;;;;5011730;28;20036;-56
2023/07/25 02:09:32;;;;;;;22.65;5.60;;;;;;;;;;5013039;28;20022;-56
2023/07/25 02:11:59;;;;;;;18.25;5.03;;;;;;;;;;5012910;28;20476;-56
2023/07/25 02:14:26;;;;;;;19.17;5.75;;;;;;;;;;5012686;28;20044;-55
2023/07/25 02:16:53;;;;;;;20.92;5.15;;;;;;;;;;5012413;28;20483;-56
2023/07/25 02:19:20;;;;;;;16.77;5.03;;;;;;;;;;5012903;28;20037;-56
2023/07/25 02:21:47;;;;;;;16.27;4.88;;;;;;;;;;5011529;28;20022;-57
2023/07/25 02:24:14;;;;;;;18.17;5.15;;;;;;;;;;5012662;28;20037;-58
2023/07/25 02:26:41;;;;;;;16.85;4.68;;;;;;;;;;5012601;28;20081;-58
2023/07/25 02:29:08;;;;;;;14.40;4.15;;;;;;;;;;5012653;28;20053;-58
2023/07/25 02:31:35;;;;;;;16.92;5.13;;;;;;;;;;5012593;28;20464;-57
2023/07/25 02:34:02;;;;;;;18.17;4.72;;;;;;;;;;5012673;28;20064;-57
2023/07/25 02:36:29;;;;;;;16.02;4.90;;;;;;;;;;5013029;28;20087;-57
2023/07/25 02:38:56;;;;;;;11.48;3.85;;;;;;;;;;5012961;28;20033;-55
2023/07/25 02:41:23;;;;;;;15.50;4.28;;;;;;;;;;5013014;28;20026;-58
2023/07/25 02:43:50;;;;;;;17.02;4.25;;;;;;;;;;5011583;28;20562;-58
2023/07/25 02:46:17;;;;;;;14.10;4.30;;;;;;;;;;5011543;28;20088;-56
2023/07/25 02:48:44;;;;;;;16.20;4.32;;;;;;;;;;5012744;28;20042;-58
2023/07/25 02:51:11;;;;;;;14.00;3.72;;;;;;;;;;5012933;28;20480;-57
2023/07/25 02:53:38;;;;;;;11.60;3.95;;;;;;;;;;5012848;28;20030;-57
2023/07/25 02:56:05;;;;;;;10.00;3.55;;;;;;;;;;5012663;28;20038;-57
2023/07/25 02:58:33;;;;;;;12.23;3.55;;;;;;;;;;5012625;28;20040;-56
2023/07/25 03:01:00;;;;;;;11.70;3.85;;;;;;;;;;5012523;28;20072;-57
2023/07/25 03:03:27;;;;;;;12.93;3.65;;;;;;;;;;5009696;28;20033;-57
2023/07/25 03:05:54;;;;;;;11.40;3.88;;;;;;;;;;5012497;28;20387;-56
2023/07/25 03:08:21;;;;;;;13.77;3.67;;;;;;;;;;5012364;28;20049;-55
2023/07/25 03:10:48;;;;;;;12.20;3.70;;;;;;;;;;5012498;28;20047;-56
2023/07/25 03:13:15;;;;;;;12.55;3.08;;;;;;;;;;5012465;28;20029;-57
2023/07/25 03:15:42;;;;;;;10.27;3.22;;;;;;;;;;5012381;28;20022;-57
2023/07/25 03:18:09;;;;;;;12.20;3.80;;;;;;;;;;5012187;28;20021;-56
2023/07/25 03:20:36;;;;;;;10.40;3.20;;;;;;;;;;5012328;28;20120;-56
2023/07/25 03:23:03;;;;;;;10.50;3.10;;;;;;;;;;5012263;28;20045;-57
2023/07/25 03:25:30;;;;;;;11.38;2.80;;;;;;;;;;5012278;28;20124;-56
2023/07/25 03:27:57;;;;;;;9.80;3.53;;;;;;;;;;5012168;28;20036;-55
2023/07/25 03:30:24;;;;;;;9.25;2.95;;;;;;;;;;5012103;28;20423;-56
2023/07/25 03:32:52;;;;;;;8.07;2.90;;;;;;;;;;5012165;28;20030;-56
2023/07/25 03:35:19;;;;;;;9.35;3.20;;;;;;;;;;5012053;28;20030;-55
2023/07/25 03:37:46;;;;;;;9.35;3.45;;;;;;;;;;5012007;28;20026;-56
2023/07/25 03:40:13;;;;;;;8.75;2.85;;;;;;;;;;5011894;28;20033;-55
2023/07/25 03:42:40;;;;;;;10.82;3.20;;;;;;;;;;5011981;28;20502;-56
2023/07/25 03:45:07;;;;;;;7.97;2.75;;;;;;;;;;5009416;28;20072;-56
2023/07/25 03:47:34;;;;;;;8.13;2.75;;;;;;;;;;5011254;28;20109;-56
2023/07/25 03:50:01;;;;;;;7.55;2.42;;;;;;;;;;5011795;28;20037;-56
2023/07/25 03:52:28;;;;;;;11.02;3.10;;;;;;;;;;5011809;28;20033;-56
2023/07/25 03:54:55;;;;;;;6.40;2.15;;;;;;;;;;5012050;28;20026;-55
2023/07/25 03:57:22;;;;;;;6.13;2.10;;;;;;;;;;5012241;28;20109;-56
2023/07/25 03:59:49;;;;;;;5.47;2.38;;;;;;;;;;5012254;28;20121;-56
2023/07/25 04:02:16;;;;;;;6.47;2.35;;;;;;;;;;5012132;28;20053;-56
2023/07/25 04:04:43;;;;;;;7.63;2.40;;;;;;;;;;5012312;28;20026;-56
2023/07/25 04:07:10;;;;;;;8.00;2.40;;;;;;;;;;5012181;28;20076;-55
2023/07/25 04:09:37;;;;;;;6.97;2.38;;;;;;;;;;5012191;28;20064;-56
2023/07/25 04:12:04;;;;;;;6.68;2.47;;;;;;;;;;5012159;28;20029;-55
2023/07/25 04:14:31;;;;;;;7.10;2.47;;;;;;;;;;5012171;28;20225;-56
2023/07/25 04:16:58;;;;;;;6.53;2.20;;;;;;;;;;5010799;28;20041;-56
2023/07/25 04:19:25;;;;;;;7.78;2.08;;;;;;;;;;5012069;28;20057;-56
2023/07/25 04:21:52;;;;;;;5.57;2.08;;;;;;;;;;5011985;28;20050;-54
2023/07/25 04:24:19;;;;;;;5.82;2.17;;;;;;;;;;5012028;28;20034;-56
2023/07/25 04:26:46;;;;;;;5.78;2.00;;;;;;;;;;5012185;28;20403;-55
2023/07/25 04:29:13;;;;;;;7.75;2.35;;;;;;;;;;5012017;28;20369;-56
2023/07/25 04:31:40;;;;;;;4.32;1.70;;;;;;;;;;5012016;28;20101;-56
2023/07/25 04:34:07;;;;;;;7.25;2.20;;;;;;;;;;5011986;28;20438;-56
2023/07/25 04:36:34;;;;;;;5.43;2.08;;;;;;;;;;5011793;28;20030;-56
2023/07/25 04:39:01;;;;;;;7.00;2.08;;;;;;;;;;5011842;28;20034;-56
2023/07/25 04:41:28;;;;;;;5.72;1.95;;;;;;;;;;5011850;28;20037;-56
2023/07/25 04:43:55;;;;;;;5.90;2.15;;;;;;;;;;5011885;28;20033;-56
2023/07/25 04:46:22;;;;;;;5.15;1.88;;;;;;;;;;5011846;28;20032;-55
2023/07/25 04:48:49;;;;;;;4.95;1.83;;;;;;;;;;5011663;28;20029;-56
2023/07/25 04:51:16;;;;;;;5.00;1.73;;;;;;;;;;5011755;28;20029;-56
2023/07/25 04:53:43;;;;;;;5.53;1.50;;;;;;;;;;5011837;28;20160;-54
2023/07/25 04:56:10;;;;;;;4.97;1.80;;;;;;;;;;5011798;28;20026;-53
2023/07/25 04:58:41;;;;;;;6.63;2.05;;;;;;;;;;5011560;28;20030;-55
2023/07/25 05:01:09;;;;;;;5.07;1.90;;;;;;;;;;5015247;28;20101;-54
2023/07/25 05:03:36;;;;;;;4.97;1.90;;;;;;;;;;5015536;28;20038;-54
2023/07/25 05:06:03;;;;;;;5.57;1.90;;;;;;;;;;5015527;28;20029;-54
2023/07/25 05:08:30;;;;;;;4.00;1.40;;;;;;;;;;5014063;28;20026;-55
2023/07/25 05:10:57;;;;;;;5.53;1.65;;;;;;;;;;5015256;28;20026;-53
2023/07/25 05:13:24;;;;;;;3.20;1.38;;;;;;;;;;5015339;28;20244;-55
2023/07/25 05:15:51;;;;;;;7.00;1.70;;;;;;;;;;5015307;28;20026;-55
2023/07/25 05:18:18;;;;;;;4.82;1.75;;;;;;;;;;5015321;28;20025;-54
2023/07/25 05:20:45;;;;;;;5.38;1.90;;;;;;;;;;5014965;28;20092;-53
2023/07/25 05:23:12;;;;;;;4.63;1.85;;;;;;;;;;5015242;28;20036;-54
2023/07/25 05:25:39;;;;;;;4.18;1.60;;;;;;;;;;5015135;28;20022;-55
2023/07/25 05:28:06;;;;;;;4.78;1.60;;;;;;;;;;5014975;28;20025;-54
2023/07/25 05:30:34;;;;;;;3.58;1.42;;;;;;;;;;5014987;28;20042;-53
2023/07/25 05:33:01;;;;;;;4.57;1.83;;;;;;;;;;5015070;28;20113;-54
2023/07/25 05:35:28;;;;;;;3.92;1.38;;;;;;;;;;5014906;28;20105;-53
2023/07/25 05:37:55;;;;;;;5.97;1.67;;;;;;;;;;5014672;28;20492;-55
2023/07/25 05:40:22;;;;;;;3.72;1.30;;;;;;;;;;5014816;28;20038;-53
2023/07/25 05:42:49;;;;;;;4.10;1.52;;;;;;;;;;5014907;28;20388;-55
2023/07/25 05:45:16;;;;;;;5.95;1.83;;;;;;;;;;5014649;28;20112;-54
2023/07/25 05:47:43;;;;;;;4.80;1.35;;;;;;;;;;5014635;28;20538;-53
2023/07/25 05:50:10;;;;;;;5.32;1.70;;;;;;;;;;5014678;28;20398;-52
2023/07/25 05:52:37;;;;;;;6.78;1.70;;;;;;;;;;5014686;28;20061;-55
2023/07/25 05:55:05;;;;;;;4.47;1.67;;;;;;;;;;5014631;28;20041;-49
2023/07/25 05:57:32;;;;;;;4.32;1.50;;;;;;;;;;5014451;28;20034;-53
2023/07/25 05:59:59;;;;;;;3.35;1.35;;;;;;;;;;5014229;28;20038;-52
2023/07/25 06:02:26;;;;;;;4.47;1.70;;;;;;;;;;5012850;28;20053;-54
2023/07/25 06:04:53;;;;;;;5.90;1.55;;;;;;;;;;5014436;28;20113;-54
2023/07/25 06:07:20;;;;;;;4.90;1.40;;;;;;;;;;5014261;28;20026;-54
2023/07/25 06:09:47;;;;;;;4.60;1.50;;;;;;;;;;5013813;28;20105;-51
2023/07/25 06:12:14;;;;;;;3.35;1.38;;;;;;;;;;5014355;28;20050;-54
2023/07/25 06:14:41;;;;;;;3.72;1.35;;;;;;;;;;5014234;28;20026;-54
2023/07/25 06:17:08;;;;;;;5.10;1.40;;;;;;;;;;5014161;28;20607;-53
2023/07/25 06:19:35;;;;;;;4.18;1.67;;;;;;;;;;5014091;28;20037;-54
2023/07/25 06:22:02;;;;;;;3.70;1.30;;;;;;;;;;5014164;28;20022;-54
2023/07/25 06:24:29;;;;;;;2.67;1.30;;;;;;;;;;5014062;28;20076;-56
2023/07/25 06:26:56;;;;;;;4.05;1.52;;;;;;;;;;5013888;28;20025;-54
2023/07/25 06:29:23;;;;;;;3.78;1.60;;;;;;;;;;5013950;28;20492;-52
2023/07/25 06:31:50;;;;;;;3.97;1.58;;;;;;;;;;5013875;28;20025;-54
2023/07/25 06:34:17;;;;;;;3.97;1.42;;;;;;;;;;5013870;28;20037;-51
2023/07/25 06:36:44;;;;;;;2.80;1.50;;;;;;;;;;5013723;28;20034;-52
2023/07/25 06:39:11;;;;;;;6.13;1.63;;;;;;;;;;5013718;28;20034;-54
2023/07/25 06:41:38;;;;;;;4.50;1.50;;;;;;;;;;5013677;28;20034;-52
2023/07/25 06:44:05;;;;;;;4.55;1.48;;;;;;;;;;5013729;28;20053;-50
2023/07/25 06:46:32;;;;;;;2.83;1.10;;;;;;;;;;5013534;28;20080;-53
2023/07/25 06:48:59;;;;;;;4.28;1.63;;;;;;;;;;5013612;28;20030;-50
2023/07/25 06:51:26;;;;;;;3.97;1.40;;;;;;;;;;5013539;28;20076;-53
2023/07/25 06:53:53;;;;;;;4.85;1.52;;;;;;;;;;5013473;28;20026;-51
2023/07/25 06:56:20;;;;;;;3.03;1.30;;;;;;;;;;5013376;28;20025;-50
2023/07/25 06:58:47;;;;;;;3.22;1.30;;;;;;;;;;5013376;28;20129;-53
2023/07/25 07:01:14;;;;;;;3.58;1.55;;;;;;;;;;5013243;28;20137;-55
2023/07/25 07:03:41;;;;;;;4.03;1.45;;;;;;;;;;5012570;28;20030;-52
2023/07/25 07:06:08;;;;;;;2.72;1.20;;;;;;;;;;5013061;28;20124;-54
2023/07/25 07:08:35;;;;;;;3.58;1.30;;;;;;;;;;5013161;28;20420;-54
2023/07/25 07:11:02;;;;;;;2.55;1.20;;;;;;;;;;5013172;28;20029;-54
2023/07/25 07:13:29;;;;;;;2.70;1.13;;;;;;;;;;5013061;28;20025;-54
2023/07/25 07:15:57;;;;;;;4.65;1.50;;;;;;;;;;5013032;28;20033;-55
2023/07/25 07:18:24;;;;;;;2.65;1.20;;;;;;;;;;5012884;28;20083;-54
2023/07/25 07:20:51;;;;;;;3.28;1.40;;;;;;;;;;5013051;28;20474;-54
2023/07/25 07:23:18;;;;;;;5.38;1.13;;;;;;;;;;5012009;28;20399;-55
2023/07/25 07:25:45;;;;;;;3.70;1.27;;;;;;;;;;5012861;28;20038;-55
2023/07/25 07:28:12;;;;;;;3.78;1.60;;;;;;;;;;5012773;28;20392;-54
2023/07/25 07:30:40;;;;;;;2.65;1.05;;;;;;;;;;5012900;28;20052;-52
2023/07/25 07:33:07;;;;;;;5.88;1.33;;;;;;;;;;5012862;28;20026;-55
2023/07/25 07:35:34;;;;;;;3.78;1.30;;;;;;;;;;5012770;28;20050;-53
2023/07/25 07:38:01;;;;;;;2.63;1.20;;;;;;;;;;5012616;28;20037;-53
2023/07/25 07:40:28;;;;;;;3.38;1.38;;;;;;;;;;5012586;28;20030;-55
2023/07/25 07:42:55;;;;;;;3.33;1.40;;;;;;;;;;5012535;28;20045;-51
2023/07/25 07:45:23;;;;;;;2.70;1.23;;;;;;;;;;5012632;28;20025;-53
2023/07/25 07:47:51;;;;;;;5.20;1.30;;;;;;;;;;5012357;28;20045;-55
2023/07/25 07:50:19;;;;;;;4.75;1.30;;;;;;;;;;5012560;28;20033;-52
2023/07/25 07:52:46;;;;;;;2.17;1.30;;;;;;;;;;4993433;28;20026;-56
2023/07/25 07:55:13;;;;;;;3.60;1.63;;;;;;;;;;4991573;28;20400;-55
2023/07/25 07:57:44;;;;;;;3.80;1.60;;;;;;;;;;4992783;28;20022;-56
2023/07/25 08:00:13;;;;;;;5.63;1.50;;;;;;;;;;4992792;28;20497;-55
2023/07/25 08:02:40;;;;;;;3.22;1.48;;;;;;;;;;4992620;28;20042;-56
2023/07/25 08:05:08;;;;;;;3.30;1.10;;;;;;;;;;4992642;28;20036;-55
2023/07/25 08:07:36;;;;;;;2.58;1.17;;;;;;;;;;4992552;28;20391;-54
2023/07/25 08:10:03;;;;;;;3.70;1.35;;;;;;;;;;4992621;28;20034;-56
2023/07/25 08:12:30;;;;;;;3.78;1.15;;;;;;;;;;4992659;28;20033;-56
2023/07/25 08:14:57;;;;;;;3.22;1.40;;;;;;;;;;4992619;28;20058;-55
2023/07/25 08:17:24;;;;;;;3.42;1.20;;;;;;;;;;4992230;28;20515;-55
2023/07/25 08:19:51;;;;;;;4.07;1.35;;;;;;;;;;4992335;28;20034;-53
2023/07/25 08:22:18;;;;;;;3.33;1.45;;;;;;;;;;4992519;28;20074;-54
2023/07/25 08:24:45;;;;;;;3.65;1.40;;;;;;;;;;4992439;28;20030;-53
2023/07/25 08:27:12;;;;;;;3.58;1.30;;;;;;;;;;4992309;28;20561;-54
2023/07/25 08:29:43;;;;;;;5.95;1.80;;;;;;;;;;4992332;28;20026;-55
2023/07/25 08:32:10;;;;;;;3.78;1.40;;;;;;;;;;4991060;28;20801;-55
2023/07/25 08:34:37;;;;;;;2.38;1.15;;;;;;;;;;4995678;28;20098;-56
2023/07/25 08:37:05;;;;;;;4.85;1.40;;;;;;;;;;4996362;28;20034;-55
2023/07/25 08:39:32;;;;;;;3.47;1.17;;;;;;;;;;4996356;28;20116;-55
2023/07/25 08:42:00;;;;;;;3.58;1.20;;;;;;;;;;4996325;28;20031;-55
2023/07/25 08:44:27;;;;;;;2.90;1.10;;;;;;;;;;4996350;28;20503;-55
2023/07/25 08:46:56;;;;;;;8.52;1.73;;;;;;;;;;4996280;28;20053;-55
2023/07/25 08:49:24;;;;;;;4.70;1.60;;;;;;;;;;4996207;28;20116;-55
2023/07/25 08:51:57;;;;;;;2.42;1.20;;;;;;;;;;4996134;28;20101;-56
2023/07/25 08:54:37;;;;;;;3.80;1.40;;;;;;;;;;4996008;28;20447;-55
2023/07/25 08:57:04;;;;;;;4.15;1.08;;;;;;;;;;4996109;28;20057;-55
2023/07/25 08:59:32;;;;;;;3.22;1.30;;;;;;;;;;4995919;28;20030;-54
2023/07/25 09:01:59;;;;;;;3.85;1.60;;;;;;;;;;4995737;28;20124;-56
2023/07/25 09:04:27;;;;;;;2.33;1.00;;;;;;;;;;4995958;28;20037;-56
2023/07/25 09:06:54;;;;;;;5.07;1.63;;;;;;;;;;4995846;28;20085;-55
2023/07/25 09:09:21;;;;;;;2.95;1.15;;;;;;;;;;4995850;28;20035;-55
2023/07/25 09:11:48;;;;;;;3.33;1.30;;;;;;;;;;4995858;28;20033;-56
2023/07/25 09:14:15;;;;;;;3.58;1.58;;;;;;;;;;4995730;28;20569;-56
2023/07/25 09:16:42;;;;;;;3.67;1.50;;;;;;;;;;4995582;28;20413;-54
2023/07/25 09:19:09;;;;;;;2.85;1.30;;;;;;;;;;4995648;28;20038;-55
2023/07/25 09:21:50;;;;;;;2.67;1.20;;;;;;;;;;4995580;28;20034;-55
2023/07/25 09:24:17;;;;;;;4.32;1.50;;;;;;;;;;4995558;28;20497;-56
2023/07/25 09:26:50;;;;;;;3.00;1.40;;;;;;;;;;4995471;28;20027;-55
2023/07/25 09:29:18;;;;;;;3.90;1.50;;;;;;;;;;4995477;28;20108;-54
2023/07/25 09:31:46;;;;;;;2.65;1.13;;;;;;;;;;5004418;28;20034;-55
2023/07/25 09:34:17;;;;;;;5.97;1.35;;;;;;;;;;5012782;28;20487;-57
2023/07/25 09:36:48;;;;;;;5.15;1.13;;;;;;;;;;5011937;28;20038;-56
2023/07/25 09:39:16;;;;;;;4.50;1.42;;;;;;;;;;5014246;28;20045;-56
2023/07/25 09:41:45;;;;;;;2.67;1.00;;;;;;;;;;5009256;28;20073;-56
2023/07/25 09:44:12;;;;;;;4.90;1.35;;;;;;;;;;5014073;28;20052;-55
2023/07/25 09:46:39;;;;;;;4.70;1.42;;;;;;;;;;5013968;28;20069;-57
2023/07/25 09:49:06;;;;;;;2.30;0.88;;;;;;;;;;5014616;28;20042;-57
2023/07/25 09:51:33;;;;;;;2.97;1.20;;;;;;;;;;5003344;28;20030;-57
2023/07/25 09:54:05;;;;;;;5.43;1.30;;;;;;;;;;4995047;28;20038;-57
2023/07/25 09:56:32;;;;;;;4.53;1.42;;;;;;;;;;4994796;28;20041;-57
2023/07/25 09:58:59;;;;;;;4.18;1.20;;;;;;;;;;4994887;28;20109;-57
2023/07/25 10:01:27;;;;;;;3.67;1.20;;;;;;;;;;4994705;28;20056;-57
2023/07/25 10:03:54;;;;;;;3.70;1.27;;;;;;;;;;4994779;28;20026;-57
2023/07/25 10:06:21;;;;;;;3.90;1.20;;;;;;;;;;4994879;28;20023;-57
2023/07/25 10:08:49;;;;;;;3.13;1.33;;;;;;;;;;4994766;28;20042;-57
2023/07/25 10:11:16;;;;;;;1.83;1.00;;;;;;;;;;4994746;28;20026;-57
2023/07/25 10:13:43;;;;;;;2.42;1.05;;;;;;;;;;4998458;28;20021;-55
2023/07/25 10:16:14;;;;;;;3.20;1.35;;;;;;;;;;5013509;28;20037;-58
2023/07/25 10:18:41;;;;;;;3.22;1.30;;;;;;;;;;5013909;28;20045;-57
2023/07/25 10:21:09;;;;;;;7.65;1.50;;;;;;;;;;5013230;28;20037;-57
2023/07/25 10:23:36;;;;;;;3.67;1.30;;;;;;;;;;5014021;28;20029;-57
2023/07/25 10:26:13;;;;;;;5.00;1.30;;;;;;;;;;5011673;28;20041;-57
2023/07/25 10:28:41;;;;;;;3.00;1.13;;;;;;;;;;5012064;28;20033;-56
2023/07/25 10:31:09;;;;;;;4.85;1.42;;;;;;;;;;5013089;28;20037;-56
2023/07/25 10:33:39;;;;;;;2.95;1.10;;;;;;;;;;5013441;28;20030;-56
2023/07/25 10:36:09;;;;;;;4.35;1.20;;;;;;;;;;5012596;28;20030;-56
2023/07/25 10:38:40;;;;;;;3.63;1.40;;;;;;;;;;5012960;28;20075;-56
2023/07/25 10:41:10;;;;;;;5.50;1.40;;;;;;;;;;5013418;28;20088;-55
2023/07/25 10:43:52;;;;;;;5.28;1.30;;;;;;;;;;5012739;28;20059;-56
2023/07/25 10:46:23;;;;;;;4.28;1.60;;;;;;;;;;5013353;28;20045;-55
2023/07/25 10:48:50;;;;;;;3.35;1.27;;;;;;;;;;5013307;28;20029;-55
2023/07/25 10:51:17;;;;;;;3.58;1.35;;;;;;;;;;5013275;28;20053;-56
2023/07/25 10:54:02;;;;;;;3.33;1.25;;;;;;;;;;5013292;28;20038;-56
2023/07/25 10:56:30;;;;;;;3.17;1.45;;;;;;;;;;5012294;28;20030;-56
2023/07/25 10:59:09;;;;;;;2.95;1.35;;;;;;;;;;5013001;28;20384;-54
2023/07/25 11:01:43;;;;;;;3.00;1.08;;;;;;;;;;5006423;28;20054;-55
2023/07/25 11:04:26;;;;;;;5.85;1.27;;;;;;;;;;5012910;28;20365;-56
2023/07/25 11:06:54;;;;;;;4.57;1.25;;;;;;;;;;5012746;28;20061;-55
2023/07/25 11:09:22;;;;;;;6.07;1.83;;;;;;;;;;5012924;28;20067;-54
2023/07/25 11:11:50;;;;;;;4.63;1.52;;;;;;;;;;5012082;28;20057;-54
2023/07/25 11:14:18;;;;;;;4.82;1.52;;;;;;;;;;5012092;28;20092;-52
2023/07/25 11:16:50;;;;;;;19.60;2.08;;;;;;;;;;5005073;28;20041;-58
2023/07/25 11:19:18;;;;;;;143.70;6.65;;;;;;;;;;5011335;28;20037;-58
2023/07/25 11:21:46;;;;;;;426.27;29.55;;;;;;;;;;5010595;28;20072;-55
2023/07/25 11:24:13;;;;;;;154.77;12.32;;;;;;;;;;5011668;28;20726;-55
2023/07/25 11:26:43;;;;;;;131.18;11.15;;;;;;;;;;5009840;28;20426;-56
2023/07/25 11:29:13;;;;;;;95.82;8.00;;;;;;;;;;5011658;28;20450;-56
2023/07/25 11:31:50;;;;;;;58.22;6.47;;;;;;;;;;5012440;28;20475;-55
2023/07/25 11:34:19;;;;;;;64.75;6.65;;;;;;;;;;5011674;28;20046;-60
2023/07/25 11:36:46;;;;;;;52.63;7.75;;;;;;;;;;5010076;28;20030;-54
2023/07/25 11:39:13;;;;;;;55.83;6.43;;;;;;;;;;5009717;28;20042;-53
2023/07/25 11:41:41;;;;;;;46.95;6.30;;;;;;;;;;5012182;28;20204;-53
2023/07/25 11:44:12;;;;;;;87.90;7.70;;;;;;;;;;5010957;28;20408;-52
2023/07/25 11:46:40;;;;;;;70.30;7.15;;;;;;;;;;5011580;28;20069;-53
2023/07/25 11:49:08;;;;;;;52.78;5.47;;;;;;;;;;5009295;28;20025;-61
2023/07/25 11:51:36;;;;;;;64.75;7.32;;;;;;;;;;5011686;28;20095;-60
2023/07/25 11:54:03;;;;;;;72.10;7.88;;;;;;;;;;5011072;28;20112;-61
2023/07/25 11:56:30;;;;;;;74.22;8.35;;;;;;;;;;5010468;28;20507;-61
2023/07/25 11:58:58;;;;;;;71.78;8.52;;;;;;;;;;5009984;28;20073;-61
2023/07/25 12:01:29;;;;;;;93.43;9.98;;;;;;;;;;5010017;28;20633;-59
2023/07/25 12:03:56;;;;;;;74.22;7.20;;;;;;;;;;5011157;28;20041;-59
2023/07/25 12:06:30;;;;;;;53.53;6.78;;;;;;;;;;5010860;28;20104;-56
2023/07/25 12:08:57;;;;;;;52.40;6.82;;;;;;;;;;5009669;28;20029;-61
2023/07/25 12:11:24;;;;;;;46.67;6.15;;;;;;;;;;5000739;28;20033;-59
2023/07/25 12:13:52;;;;;;;40.78;5.25;;;;;;;;;;5005353;28;20025;-59
2023/07/25 12:16:28;;;;;;;55.90;6.68;;;;;;;;;;5009067;28;20036;-59
2023/07/25 12:18:57;;;;;;;43.70;5.68;;;;;;;;;;5010426;28;20121;-61
2023/07/25 12:21:28;;;;;;;35.50;5.97;;;;;;;;;;5011538;28;20022;-61
2023/07/25 12:23:57;;;;;;;45.45;6.38;;;;;;;;;;5007611;28;20772;-61
2023/07/25 12:26:24;;;;;;;47.03;5.90;;;;;;;;;;5010324;28;20026;-62
2023/07/25 12:28:52;;;;;;;52.08;6.25;;;;;;;;;;5011057;28;20507;-66
2023/07/25 12:31:19;;;;;;;52.60;6.97;;;;;;;;;;5010490;28;20117;-64
2023/07/25 12:33:47;;;;;;;51.92;7.03;;;;;;;;;;5007569;28;20022;-62
2023/07/25 12:36:16;;;;;;;48.47;6.85;;;;;;;;;;5009861;28;20132;-62
2023/07/25 12:38:43;;;;;;;46.88;6.72;;;;;;;;;;5011122;28;20053;-61
2023/07/25 12:41:11;;;;;;;41.60;6.07;;;;;;;;;;5011206;28;20468;-61
2023/07/25 12:43:38;;;;;;;42.47;5.47;;;;;;;;;;5008834;28;20022;-62
2023/07/25 12:46:05;;;;;;;37.58;4.95;;;;;;;;;;5009126;28;20036;-62
2023/07/25 12:48:32;;;;;;;50.10;5.50;;;;;;;;;;5010983;28;20483;-62
2023/07/25 12:51:00;;;;;;;45.63;5.40;;;;;;;;;;5010656;28;20034;-62
2023/07/25 12:53:27;;;;;;;36.67;5.15;;;;;;;;;;5008800;28;20375;-61
2023/07/25 12:55:54;;;;;;;34.45;5.68;;;;;;;;;;5008359;28;20034;-61
2023/07/25 12:58:21;;;;;;;33.67;4.93;;;;;;;;;;5010909;28;20046;-62
2023/07/25 13:00:48;;;;;;;34.85;4.47;;;;;;;;;;5011016;28;20054;-61
2023/07/25 13:03:15;;;;;;;38.20;5.15;;;;;;;;;;5008906;28;20049;-61
2023/07/25 13:05:42;;;;;;;40.38;4.25;;;;;;;;;;5011164;28;20110;-61
2023/07/25 13:08:09;;;;;;;28.48;4.35;;;;;;;;;;5011220;28;20034;-61
2023/07/25 13:10:36;;;;;;;25.20;4.30;;;;;;;;;;5011240;28;20030;-61
2023/07/25 13:13:03;;;;;;;23.80;3.63;;;;;;;;;;5011206;28;20109;-62
2023/07/25 13:15:30;;;;;;;28.75;4.10;;;;;;;;;;5010974;28;20094;-64
2023/07/25 13:17:57;;;;;;;36.95;4.10;;;;;;;;;;4998141;28;20048;-63
2023/07/25 13:20:24;;;;;;;28.80;4.03;;;;;;;;;;5011882;28;20128;-64
2023/07/25 13:22:53;;;;;;;30.95;3.85;;;;;;;;;;5014666;28;20033;-63
2023/07/25 13:25:21;;;;;;;27.15;4.13;;;;;;;;;;5013571;28;20040;-63
2023/07/25 13:27:48;;;;;;;21.00;3.28;;;;;;;;;;5014568;28;20025;-63
2023/07/25 13:30:14;;;;;;;14.48;2.97;;;;;;;;;;5014466;28;20018;-59
2023/07/25 13:32:41;;;;;;;18.30;3.35;;;;;;;;;;5014798;28;20017;-59
2023/07/25 13:35:09;;;;;;;18.58;3.30;;;;;;;;;;5014486;28;20083;-59
2023/07/25 13:37:36;;;;;;;16.15;3.67;;;;;;;;;;5014271;28;20022;-59
2023/07/25 13:40:03;;;;;;;19.75;3.08;;;;;;;;;;5014408;28;20472;-59
2023/07/25 13:42:31;;;;;;;20.23;3.95;;;;;;;;;;5014362;28;20045;-59
2023/07/25 13:44:58;;;;;;;22.00;3.25;;;;;;;;;;5014225;28;20518;-59
2023/07/25 13:47:25;;;;;;;20.92;2.95;;;;;;;;;;5014239;28;20022;-59
2023/07/25 13:49:52;;;;;;;12.18;2.65;;;;;;;;;;5012853;28;20026;-59
2023/07/25 13:52:19;;;;;;;14.30;2.78;;;;;;;;;;5014077;28;20108;-59
2023/07/25 13:54:46;;;;;;;14.45;2.55;;;;;;;;;;5013635;28;20044;-60
2023/07/25 13:57:13;;;;;;;14.98;2.40;;;;;;;;;;5012830;28;20121;-59
2023/07/25 13:59:40;;;;;;;17.30;2.50;;;;;;;;;;5013879;28;20030;-59
2023/07/25 14:02:07;;;;;;;13.70;2.05;;;;;;;;;;5013699;28;20408;-59
2023/07/25 14:04:34;;;;;;;13.63;2.53;;;;;;;;;;5014074;28;20049;-59
2023/07/25 14:07:02;;;;;;;12.30;2.08;;;;;;;;;;5013743;28;20113;-59
2023/07/25 14:09:29;;;;;;;14.82;2.28;;;;;;;;;;5012564;28;20030;-59
2023/07/25 14:11:56;;;;;;;16.88;2.38;;;;;;;;;;5013423;28;20018;-59
2023/07/25 14:14:23;;;;;;;20.40;2.70;;;;;;;;;;5009414;28;20069;-59
2023/07/25 14:16:50;;;;;;;47.92;3.60;;;;;;;;;;5013451;28;20025;-59
2023/07/25 14:19:17;;;;;;;34.83;3.17;;;;;;;;;;5013606;28;20487;-59
2023/07/25 14:21:45;;;;;;;32.33;3.72;;;;;;;;;;5012217;28;20104;-59
2023/07/25 14:24:12;;;;;;;19.63;4.75;;;;;;;;;;5000371;28;20044;-60
2023/07/25 14:26:39;;;;;;;25.17;4.70;;;;;;;;;;5009174;28;20040;-59
2023/07/25 14:29:06;;;;;;;27.23;5.03;;;;;;;;;;5013352;28;20365;-59
2023/07/25 14:31:33;;;;;;;44.08;7.85;;;;;;;;;;5012876;28;20376;-59
2023/07/25 14:34:00;;;;;;;46.60;7.25;;;;;;;;;;5013161;28;20030;-58
2023/07/25 14:36:27;;;;;;;40.25;8.32;;;;;;;;;;5011842;28;20022;-58
2023/07/25 14:38:54;;;;;;;58.80;9.45;;;;;;;;;;5013163;28;20038;-59